LEGR Información de aeropuertos

Información de pistas
Pista 09 Longitud 9514 ft Ancho 148 ft
Elevación 1842 ft Umbral 0 ft Rumbo 90
Pista 27 Longitud 9514 ft Ancho 148 ft
Elevación 1860 ft Umbral 0 ft Rumbo 270
Frecuencias
Tipo GND Nombre GND Frequencia 121.7 MHZ
Tipo TWR Nombre TWR Frequencia 118.85 MHZ
Radioayudas
Tipo VOR-DME Nombre Granada Frequencia 113400 KHZ
Información meteorológica y NOTAM
ADDS - METARS form results

(1645 UTC 12 June 2021)
Data provider http://aviationweather.gov/metar/data/
 
METAR text: LEGR 121630Z VRB01KT 9999 FEW060 34/07 Q1016
Conditions at: LEGR (GRANADA AIRPORT , ES) observed 1630 UTC 12 June 2021
Temperature: 34.0°C (93°F)
Dewpoint: 7.0°C (45°F) [RH = 19%]
Pressure (altimeter): 30.00 inches Hg (1016.0 mb)
Winds: variable direction winds at 1 MPH (1 knots; 0.5 m/s)
Visibility: 6 or more miles (10+ km)
Ceiling: at least 12,000 feet AGL
Clouds: few clouds at 6000 feet AGL
Weather: no significant weather observed at this time

METAR text: LEGR 121600Z VRB01KT 9999 FEW060 33/08 Q1015
Conditions at: LEGR (GRANADA AIRPORT , ES) observed 1600 UTC 12 June 2021
Temperature: 33.0°C (91°F)
Dewpoint: 8.0°C (46°F) [RH = 21%]
Pressure (altimeter): 29.97 inches Hg (1015.0 mb)
Winds: variable direction winds at 1 MPH (1 knots; 0.5 m/s)
Visibility: 6 or more miles (10+ km)
Ceiling: at least 12,000 feet AGL
Clouds: few clouds at 6000 feet AGL
Weather: no significant weather observed at this time

Forecast for: AMD
Text: TAF AMD LEGR 121352Z 1213/1312 16012KT 9999 FEW080 TX34/1215Z TN15/1305Z
Forecast period: 1300 to 2000 UTC 12 June 2021
Forecast type: FROM: standard forecast or significant change
Winds: from the SSE (160 degrees) at 14 MPH (12 knots; 6.2 m/s)
Visibility: 6 or more miles (10+ km)
Ceiling: at least 12,000 feet AGL
Clouds: few clouds at 8000 feet AGL
Weather: no significant weather forecast for this period
Text: PROB40
Forecast period: 1300 to 2000 UTC 12 June 2021
Forecast type: TEMPORARY: The following changes expected for less than half the time period
Winds: from the SSE (160 degrees) at 23 MPH (20 knots; 10.3 m/s)
gusting to 34 MPH (30 knots; 15.4 m/s)
Visibility: 1.86 miles (2.99 km)
Ceiling: at least 12,000 feet AGL
Clouds: scattered clouds at 7000 feet AGL
Weather: SHRA  (rain showers)
Text: TEMPO 1213/1220 16020G30KT 3000 SHRA SCT070CB
Forecast period: 2000 UTC 12 June 2021 to 1200 UTC 13 June 2021
Forecast type: BECOMING: Conditions expected to become as follows by 2300 UTC 12 June 2021
Winds: variable direction winds at 2 MPH (2 knots; 1.0 m/s)
Visibility: 6 or more miles (10+ km)
Ceiling: at least 12,000 feet AGL
Clouds: few clouds at 8000 feet AGL
Weather: no significant weather forecast for this period